KMHS/MHS METAR and TAF weather

Enter ICAO airport designator
Station Type Date Time Source
KMHS METAR 2022/01/25 04:56 UTC NOAA

KMHS 250456Z AUTO 00000KT 10SM CLR 03/M04 A3013 RMK AO2 SLP227 T00331044


Station Type Date Time Source
KMHS Decoded METAR 2022/01/25 04:56 UTC NOAA

MOUNT SHASTA, CA, United States (KMHS) 41-19N 122-19W 1078M
Jan 24, 2022 - 11:56 PM EST / 2022.01.25 0456 UTC
Wind: Calm:0
Visibility: 10 mile(s):0
Sky conditions: clear
Temperature: 37.9 F (3.3 C)
Dew Point: 24.1 F (-4.4 C)
Relative Humidity: 56%
Pressure (altimeter): 30.13 in. Hg (1020 hPa)
ob: KMHS 250456Z AUTO 00000KT 10SM CLR 03/M04 A3013 RMK AO2 SLP227 T00331044
cycle: 5

Station Type Date Time Source
KMHS TAF UTC NOAA

Error!

Example: see airport list